Dades meteomassalio
Diari Summary for Juliol 26, 2017 Units:  Metric    English   Both
« Previous Day
Next Day »
Diari Semanal Mensual Anual Personalitzat
  Maxima: Minima: Mijana:
Temperatura: -17.8 °C -8.6 °C -4.8 °C
Rosada: -17.8 °C -12.3 °C -11.5 °C
Humitat: Humidity % 29 % 49 %
Velocitat del vent: 0 km/h 0 km/h 32 km/h
Racha vent: 0 km/h - -
Vent:- - WNW
Pressio: 0 hPa 34269.7 hPa -
Pluja: 0 mm    
Historical Graphs
 
 
Tabular Data for Juliol 26, 2017
Time Temperature Dew Point Pressure Wind Wind Speed Wind Gust Humidity Rainfall Rate (Hourly) solar Conditions
-17.8 °C -17.8 °C 0 hPa Calm     Humidity % 0 mm SolarRadiationWatts/m^2 W/m2 Conditions
00:00 -6.8 °C -11.8 °C 34395 hPa West 44.1 km/h 44.1 km/h 56 % 0 mm 0.0 W/m2 CLR
00:05 -6.9 °C -11.9 °C 34395 hPa West 50.7 km/h 50.7 km/h 56 % 0 mm 0.0 W/m2 CLR
00:10 -6.9 °C -11.9 °C 34395 hPa WNW 41.4 km/h 41.4 km/h 56 % 0 mm 0.0 W/m2 CLR
00:15 -7 °C -12 °C 34384.8 hPa West 50.7 km/h 50.7 km/h 56 % 0 mm 0.0 W/m2 CLR
00:20 -7.1 °C -11.9 °C 34384.8 hPa West 32.8 km/h 32.8 km/h 57 % 0 mm 0.0 W/m2 CLR
00:25 -7.1 °C -11.9 °C 34384.8 hPa West 44.1 km/h 44.1 km/h 57 % 0 mm 0.0 W/m2 CLR
00:30 -7.1 °C -11.9 °C 34384.8 hPa WSW 50.7 km/h 50.7 km/h 57 % 0 mm 0.0 W/m2 CLR
00:35 -7.1 °C -11.9 °C 34395 hPa WNW 41.4 km/h 41.4 km/h 57 % 0 mm 0.0 W/m2 CLR
00:40 -7.1 °C -11.9 °C 34395 hPa WNW 41.7 km/h 41.7 km/h 57 % 0 mm 0.0 W/m2 CLR
00:45 -7.1 °C -11.9 °C 34405.1 hPa West 56.6 km/h 56.6 km/h 57 % 0 mm 0.0 W/m2 CLR
00:50 -7.2 °C -11.8 °C 34405.1 hPa West 32.8 km/h 32.8 km/h 58 % 0 mm 0.0 W/m2 CLR
00:55 -7.2 °C -11.9 °C 34395 hPa WNW 50.7 km/h 50.7 km/h 58 % 0 mm 0.0 W/m2 CLR
01:00 -7.2 °C -11.9 °C 34395 hPa WNW 53.6 km/h 53.6 km/h 58 % 0 mm 0.0 W/m2 CLR
01:05 -7.3 °C -11.9 °C 34395 hPa West 53.6 km/h 53.6 km/h 58 % 0 mm 0.0 W/m2 CLR
01:10 -7.3 °C -11.8 °C 34395 hPa West 44.7 km/h 44.7 km/h 59 % 0 mm 0.0 W/m2 CLR
01:11 -7.3 °C -11.8 °C 34395 hPa West 47.6 km/h 47.6 km/h 59 % 0 mm 0.0 W/m2 CLR
01:16 -7.4 °C -11.8 °C 34395 hPa West 38.8 km/h 38.8 km/h 60 % 0 mm 0.0 W/m2 CLR
01:21 -7.4 °C -11.8 °C 34395 hPa West 50.7 km/h 50.7 km/h 60 % 0 mm 0.0 W/m2 CLR
01:26 -7.4 °C -11.8 °C 34395 hPa West 33.6 km/h 33.6 km/h 60 % 0 mm 0.0 W/m2 CLR
01:31 -7.5 °C -11.8 °C 34395 hPa WNW 50.7 km/h 50.7 km/h 61 % 0 mm 0.0 W/m2 CLR
01:36 -7.6 °C -11.8 °C 34395 hPa West 50.7 km/h 50.7 km/h 61 % 0 mm 0.0 W/m2 CLR
01:41 -7.6 °C -11.8 °C 34395 hPa West 41.7 km/h 41.7 km/h 61 % 0 mm 0.0 W/m2 CLR
01:46 -7.6 °C -11.8 °C 34395 hPa West 47.6 km/h 47.6 km/h 61 % 0 mm 0.0 W/m2 CLR
01:48 -7.6 °C -11.8 °C 34395 hPa West 41.7 km/h 41.7 km/h 61 % 0 mm 0.0 W/m2 CLR
01:53 -7.6 °C -11.7 °C 34395 hPa WNW 47.6 km/h 47.6 km/h 62 % 0 mm 0.0 W/m2 CLR
01:58 -7.7 °C -11.9 °C 34395 hPa West 41.7 km/h 41.7 km/h 61 % 0 mm 0.0 W/m2 CLR
02:03 -7.7 °C -11.9 °C 34395 hPa West 32.8 km/h 32.8 km/h 61 % 0 mm 0.0 W/m2 CLR
02:08 -7.7 °C -12 °C 34395 hPa West 29.8 km/h 29.8 km/h 61 % 0 mm 0.0 W/m2 CLR
02:13 -7.7 °C -12 °C 34384.8 hPa West 47.6 km/h 47.6 km/h 61 % 0 mm 0.0 W/m2 CLR
02:18 -7.7 °C -12 °C 34384.8 hPa WSW 17.9 km/h 17.9 km/h 61 % 0 mm 0.0 W/m2 CLR
02:23 -7.8 °C -12 °C 34384.8 hPa West 41.7 km/h 41.7 km/h 61 % 0 mm 0.0 W/m2 CLR
02:28 -7.8 °C -12 °C 34384.8 hPa WSW 44.7 km/h 44.7 km/h 61 % 0 mm 0.0 W/m2 CLR
02:33 -7.8 °C -12.1 °C 34384.8 hPa West 33.6 km/h 33.6 km/h 61 % 0 mm 0.0 W/m2 CLR
02:36 -7.8 °C -12 °C 34384.8 hPa WNW 41.7 km/h 41.7 km/h 61 % 0 mm 0.0 W/m2 CLR
02:41 -7.8 °C -12 °C 34384.8 hPa West 47.6 km/h 47.6 km/h 61 % 0 mm 0.0 W/m2 CLR
02:46 -7.8 °C -12 °C 34384.8 hPa West 47.6 km/h 47.6 km/h 61 % 0 mm 0.0 W/m2 CLR
02:51 -7.8 °C -12 °C 34384.8 hPa West 41.7 km/h 41.7 km/h 61 % 0 mm 0.0 W/m2 CLR
02:56 -7.8 °C -12 °C 34371.3 hPa West 59.5 km/h 59.5 km/h 61 % 0 mm 0.0 W/m2 CLR
03:01 -7.8 °C -12 °C 34371.3 hPa West 59.5 km/h 59.5 km/h 61 % 0 mm 0.0 W/m2 CLR
03:06 -7.8 °C -12.1 °C 34384.8 hPa West 38.8 km/h 38.8 km/h 61 % 0 mm 0.0 W/m2 CLR
03:11 -7.8 °C -11.9 °C 34384.8 hPa West 29.8 km/h 29.8 km/h 62 % 0 mm 0.0 W/m2 CLR
03:17 -7.9 °C -12 °C 34384.8 hPa West 23.3 km/h 23.3 km/h 62 % 0 mm 0.0 W/m2 CLR
03:22 -7.9 °C -12.1 °C 34384.8 hPa West 9 km/h 9 km/h 62 % 0 mm 0.0 W/m2 CLR
03:27 -8 °C -11.9 °C 34384.8 hPa SW 17.9 km/h 17.9 km/h 63 % 0 mm 0.0 W/m2 CLR
03:32 -8 °C -12 °C 34384.8 hPa WNW 26.9 km/h 26.9 km/h 63 % 0 mm 0.0 W/m2 CLR
03:37 -8 °C -12 °C 34384.8 hPa West 20.9 km/h 20.9 km/h 63 % 0 mm 0.0 W/m2 CLR
03:42 -8 °C -11.8 °C 34384.8 hPa West 38.8 km/h 38.8 km/h 64 % 0 mm 0.0 W/m2 CLR
03:47 -8 °C -11.8 °C 34384.8 hPa West 26.9 km/h 26.9 km/h 64 % 0 mm 0.0 W/m2 CLR
03:52 -8.1 °C -11.9 °C 34384.8 hPa West 35.7 km/h 35.7 km/h 64 % 0 mm 0.0 W/m2 CLR
03:57 -8.1 °C -11.9 °C 34384.8 hPa West 32.8 km/h 32.8 km/h 64 % 0 mm 0.0 W/m2 CLR
04:02 -8.1 °C -11.9 °C 34384.8 hPa West 29.8 km/h 29.8 km/h 64 % 0 mm 0.0 W/m2 CLR
04:03 -8.1 °C -11.9 °C 34384.8 hPa West 29.8 km/h 29.8 km/h 64 % 0 mm 0.0 W/m2 CLR
04:08 -8.1 °C -11.9 °C 34384.8 hPa West 29.8 km/h 29.8 km/h 64 % 0 mm 0.0 W/m2 CLR
04:13 -8.1 °C -11.9 °C 34384.8 hPa West 29.8 km/h 29.8 km/h 64 % 0 mm 0.0 W/m2 CLR
04:18 -8.1 °C -11.9 °C 34384.8 hPa WNW 26.9 km/h 26.9 km/h 64 % 0 mm 0.0 W/m2 CLR
04:23 -8.1 °C -11.9 °C 34384.8 hPa West 29.8 km/h 29.8 km/h 64 % 0 mm 0.0 W/m2 CLR
04:28 -8.1 °C -11.9 °C 34384.8 hPa West 23.8 km/h 23.8 km/h 64 % 0 mm 0.0 W/m2 CLR
04:33 -8.1 °C -11.9 °C 34384.8 hPa WNW 38.8 km/h 38.8 km/h 64 % 0 mm 0.0 W/m2 CLR
04:38 -8.1 °C -11.9 °C 34384.8 hPa West 31.1 km/h 31.1 km/h 64 % 0 mm 0.0 W/m2 CLR
04:43 -8.1 °C -11.8 °C 34384.8 hPa West 26.9 km/h 26.9 km/h 65 % 0 mm 0.0 W/m2 CLR
04:48 -8.1 °C -11.8 °C 34384.8 hPa WNW 29.8 km/h 29.8 km/h 65 % 0 mm 0.0 W/m2 CLR
04:53 -8.2 °C -11.8 °C 34384.8 hPa WNW 26.9 km/h 26.9 km/h 65 % 0 mm 0.0 W/m2 CLR
04:58 -8.2 °C -11.9 °C 34384.8 hPa West 28.5 km/h 28.5 km/h 65 % 0 mm 0.0 W/m2 CLR
05:03 -8.2 °C -11.8 °C 34371.3 hPa West 26.9 km/h 26.9 km/h 66 % 0 mm 0.0 W/m2 CLR
05:08 -8.3 °C -11.8 °C 34371.3 hPa West 46.7 km/h 46.7 km/h 66 % 0 mm 0.0 W/m2 CLR
05:13 -8.3 °C -11.8 °C 34384.8 hPa West 32.8 km/h 32.8 km/h 66 % 0 mm 0.0 W/m2 CLR
05:18 -8.3 °C -11.8 °C 34384.8 hPa West 41.7 km/h 41.7 km/h 66 % 0 mm 0.0 W/m2 CLR
05:23 -8.3 °C -11.8 °C 34384.8 hPa WSW 15 km/h 15 km/h 66 % 0 mm 0.0 W/m2 CLR
05:28 -8.3 °C -11.9 °C 34384.8 hPa WSW 23.8 km/h 23.8 km/h 66 % 0 mm 0.0 W/m2 CLR
05:33 -8.3 °C -11.9 °C 34384.8 hPa West 9 km/h 9 km/h 66 % 0 mm 0.0 W/m2 CLR
05:38 -8.4 °C -11.9 °C 34384.8 hPa WNW 32.8 km/h 32.8 km/h 66 % 0 mm 0.0 W/m2 CLR
05:43 -8.4 °C -11.9 °C 34384.8 hPa West 11.9 km/h 11.9 km/h 66 % 0 mm 0.0 W/m2 CLR
05:48 -8.4 °C -11.9 °C 34384.8 hPa West 32.8 km/h 32.8 km/h 66 % 0 mm 0.0 W/m2 CLR
05:53 -8.4 °C -11.9 °C 34384.8 hPa West 29.8 km/h 29.8 km/h 66 % 0 mm 0.0 W/m2 CLR
05:58 -8.4 °C -11.9 °C 34384.8 hPa West 29.8 km/h 29.8 km/h 66 % 0 mm 0.0 W/m2 CLR
06:04 -8.4 °C -11.9 °C 34384.8 hPa WNW 32.8 km/h 32.8 km/h 66 % 0 mm 0.0 W/m2 CLR
06:09 -8.4 °C -11.9 °C 34384.8 hPa West 33.6 km/h 33.6 km/h 66 % 0 mm 0.0 W/m2 CLR
06:14 -8.4 °C -12 °C 34384.8 hPa WNW 26.9 km/h 26.9 km/h 66 % 0 mm 0.0 W/m2 CLR
06:19 -8.4 °C -12 °C 34395 hPa WNW 29.8 km/h 29.8 km/h 66 % 0 mm 0.0 W/m2 CLR
06:24 -8.4 °C -11.9 °C 34395 hPa NW 31.1 km/h 31.1 km/h 67 % 0 mm 0.0 W/m2 CLR
06:29 -8.5 °C -11.9 °C 34395 hPa WNW 20.9 km/h 20.9 km/h 67 % 0 mm 0.0 W/m2 CLR
06:34 -8.5 °C -11.9 °C 34395 hPa WNW 25.9 km/h 27.5 km/h 67 % 0 mm 0.0 W/m2 CLR
06:39 -8.4 °C -11.9 °C 34395 hPa WNW 35.7 km/h 35.7 km/h 67 % 0 mm 0.0 W/m2 CLR
06:44 -8.5 °C -11.9 °C 34395 hPa NW 33.6 km/h 33.6 km/h 67 % 0 mm 5.0 W/m2 OVC
06:49 -8.5 °C -11.9 °C 34395 hPa WNW 29.8 km/h 29.8 km/h 67 % 0 mm 0.0 W/m2 OVC
06:54 -8.5 °C -11.9 °C 34395 hPa NW 23.8 km/h 23.8 km/h 67 % 0 mm 5.0 W/m2 OVC
06:59 -8.5 °C -11.9 °C 34395 hPa WNW 20.9 km/h 20.9 km/h 67 % 0 mm 9.0 W/m2 BKN
07:04 -8.6 °C -12 °C 34395 hPa WNW 17.9 km/h 17.9 km/h 67 % 0 mm 12.0 W/m2 BKN
07:09 -8.6 °C -11.8 °C 34395 hPa West 23.8 km/h 23.8 km/h 68 % 0 mm 18.0 W/m2 BKN
07:14 -8.6 °C -11.8 °C 34395 hPa West 20.9 km/h 20.9 km/h 68 % 0 mm 25.0 W/m2 BKN
07:19 -8.5 °C -11.8 °C 34395 hPa WNW 20.9 km/h 20.9 km/h 68 % 0 mm 28.0 W/m2 BKN
07:24 -8.4 °C -11.9 °C 34395 hPa West 17.9 km/h 17.9 km/h 67 % 0 mm 35.0 W/m2 BKN
07:29 -8.4 °C -11.8 °C 34395 hPa West 29.8 km/h 29.8 km/h 67 % 0 mm 39.0 W/m2 BKN
07:34 -8.3 °C -11.8 °C 34395 hPa Calm     67 % 0 mm 39.0 W/m2 BKN
07:39 -8.3 °C -11.8 °C 34395 hPa West 23.8 km/h 23.8 km/h 66 % 0 mm 49.0 W/m2 SCT
07:44 -8.3 °C -11.8 °C 34395 hPa WNW 17.9 km/h 17.9 km/h 66 % 0 mm 60.0 W/m2 SCT
07:49 -8.3 °C -11.7 °C 34405.1 hPa NW 44.1 km/h 44.1 km/h 67 % 0 mm 83.0 W/m2 FEW
07:54 -8.2 °C -11.8 °C 34405.1 hPa NW 26.9 km/h 26.9 km/h 66 % 0 mm 90.0 W/m2 FEW
07:59 -8.2 °C -11.7 °C 34405.1 hPa WNW 28.5 km/h 28.5 km/h 66 % 0 mm 100.0 W/m2 CLR
08:04 -8.1 °C -11.8 °C 34405.1 hPa WNW 35.7 km/h 35.7 km/h 65 % 0 mm 104.0 W/m2 CLR
08:09 -8.1 °C -11.8 °C 34405.1 hPa West 32.8 km/h 32.8 km/h 65 % 0 mm 123.0 W/m2 CLR
08:14 -8 °C -11.7 °C 34405.1 hPa WNW 41.7 km/h 41.7 km/h 65 % 0 mm 158.0 W/m2 CLR
08:19 -7.9 °C -11.6 °C 34405.1 hPa West 32.8 km/h 32.8 km/h 65 % 0 mm 171.0 W/m2 CLR
08:24 -7.9 °C -11.7 °C 34405.1 hPa WNW 44.7 km/h 44.7 km/h 64 % 0 mm 181.0 W/m2 CLR
08:29 -7.8 °C -11.7 °C 34405.1 hPa WNW 35.7 km/h 35.7 km/h 64 % 0 mm 211.0 W/m2 CLR
08:34 -7.8 °C -11.6 °C 34405.1 hPa WNW 32.8 km/h 32.8 km/h 64 % 0 mm 241.0 W/m2 CLR
08:39 -7.7 °C -11.6 °C 34405.1 hPa West 35.7 km/h 35.7 km/h 64 % 0 mm 258.0 W/m2 CLR
08:44 -7.7 °C -11.6 °C 34405.1 hPa NW 32.8 km/h 32.8 km/h 63 % 0 mm 234.0 W/m2 CLR
08:49 -7.6 °C -11.6 °C 34405.1 hPa NW 29.8 km/h 29.8 km/h 63 % 0 mm 285.0 W/m2 CLR
08:54 -7.6 °C -11.5 °C 34405.1 hPa WNW 29.8 km/h 29.8 km/h 63 % 0 mm 276.0 W/m2 CLR
08:59 -7.6 °C -11.6 °C 34405.1 hPa NW 35.7 km/h 35.7 km/h 63 % 0 mm 288.0 W/m2 CLR
09:04 -7.4 °C -11.4 °C 34405.1 hPa WNW 29.8 km/h 29.8 km/h 63 % 0 mm 288.0 W/m2 CLR
09:09 -7.4 °C -11.6 °C 34405.1 hPa WNW 26.9 km/h 26.9 km/h 62 % 0 mm 292.0 W/m2 CLR
09:14 -7.3 °C -11.4 °C 34405.1 hPa WNW 29.8 km/h 29.8 km/h 62 % 0 mm 302.0 W/m2 CLR
09:19 -7.2 °C -11.5 °C 34405.1 hPa NW 44.7 km/h 44.7 km/h 61 % 0 mm 338.0 W/m2 CLR
09:24 -7.2 °C -11.5 °C 34405.1 hPa NW 29.8 km/h 29.8 km/h 61 % 0 mm 366.0 W/m2 CLR
09:29 -7.2 °C -11.6 °C 34405.1 hPa NW 44.7 km/h 44.7 km/h 60 % 0 mm 376.0 W/m2 CLR
09:34 -7.2 °C -11.4 °C 34405.1 hPa NW 36.2 km/h 36.2 km/h 61 % 0 mm 404.0 W/m2 CLR
09:35 -7.2 °C -11.4 °C 34405.1 hPa WNW 38.8 km/h 38.8 km/h 61 % 0 mm 404.0 W/m2 CLR
09:40 -7.1 °C -11.3 °C 34405.1 hPa WNW 26.9 km/h 27.7 km/h 61 % 0 mm 432.0 W/m2 CLR
09:45 -6.9 °C -11.5 °C 34405.1 hPa NNW 38.8 km/h 38.8 km/h 59 % 0 mm 473.0 W/m2 CLR
09:50 -7.1 °C -11.4 °C 34405.1 hPa NW 50.7 km/h 50.7 km/h 60 % 0 mm 476.0 W/m2 CLR
09:55 -6.9 °C -11.4 °C 34405.1 hPa WNW 32.8 km/h 32.8 km/h 60 % 0 mm 316.0 W/m2 CLR
10:00 -6.8 °C -11.6 °C 34418.7 hPa NW 44.7 km/h 44.7 km/h 58 % 0 mm 190.0 W/m2 CLR
10:05 -6.7 °C -11.4 °C 34405.1 hPa NW 38.8 km/h 38.8 km/h 58 % 0 mm 461.0 W/m2 CLR
10:10 -6.6 °C -11.3 °C 34405.1 hPa NW 44.7 km/h 44.7 km/h 58 % 0 mm 524.0 W/m2 CLR
10:15 -6.7 °C -11.4 °C 34418.7 hPa WNW 44.7 km/h 44.7 km/h 58 % 0 mm 529.0 W/m2 CLR
10:20 -6.6 °C -11.5 °C 34405.1 hPa NW 47.6 km/h 47.6 km/h 57 % 0 mm 548.0 W/m2 CLR
10:25 -6.5 °C -11.6 °C 34405.1 hPa NW 44.7 km/h 44.7 km/h 56 % 0 mm 582.0 W/m2 CLR
10:30 -6.4 °C -11.4 °C 34405.1 hPa NNW 44.7 km/h 44.7 km/h 56 % 0 mm 589.0 W/m2 CLR
10:35 -6.4 °C -11.4 °C 34405.1 hPa NW 32.8 km/h 32.8 km/h 56 % 0 mm 608.0 W/m2 CLR
10:40 -6.3 °C -11.3 °C 34405.1 hPa NW 29.8 km/h 29.8 km/h 56 % 0 mm 612.0 W/m2 CLR
10:45 -6.2 °C -11.3 °C 34405.1 hPa NW 29.8 km/h 29.8 km/h 55 % 0 mm 624.0 W/m2 CLR
10:50 -6.1 °C -11.4 °C 34395 hPa NNW 44.7 km/h 44.7 km/h 54 % 0 mm 629.0 W/m2 CLR
10:55 -6.1 °C -11.4 °C 34395 hPa NW 38.8 km/h 38.8 km/h 54 % 0 mm 659.0 W/m2 CLR
11:00 -5.9 °C -11.5 °C 34395 hPa NNW 41.7 km/h 41.7 km/h 53 % 0 mm 656.0 W/m2 CLR
11:05 -5.9 °C -11.4 °C 34395 hPa NNW 38.8 km/h 38.8 km/h 53 % 0 mm 670.0 W/m2 CLR
11:10 -5.8 °C -11.4 °C 34395 hPa NW 32.8 km/h 32.8 km/h 53 % 0 mm 657.0 W/m2 CLR
11:15 -5.8 °C -11.3 °C 34395 hPa West 26.9 km/h 26.9 km/h 53 % 0 mm 705.0 W/m2 CLR
11:20 -5.7 °C -11.1 °C 34395 hPa NW 32.8 km/h 32.8 km/h 54 % 0 mm 721.0 W/m2 CLR
11:25 -5.5 °C -11.2 °C 34395 hPa NW 35.7 km/h 35.7 km/h 52 % 0 mm 731.0 W/m2 CLR
11:30 -5.4 °C -11.3 °C 34395 hPa NW 26.9 km/h 26.9 km/h 51 % 0 mm 722.0 W/m2 CLR
11:35 -5.3 °C -11.4 °C 34395 hPa West 29.8 km/h 29.8 km/h 50 % 0 mm 726.0 W/m2 CLR
11:40 -5.2 °C -11.5 °C 34395 hPa NW 49.2 km/h 49.2 km/h 49 % 0 mm 756.0 W/m2 CLR
11:45 -5.2 °C -11.3 °C 34395 hPa NW 35.7 km/h 35.7 km/h 50 % 0 mm 761.0 W/m2 CLR
11:50 -5.2 °C -11.2 °C 34395 hPa NNW 3.1 km/h 3.1 km/h 50 % 0 mm 754.0 W/m2 CLR
11:55 -5.2 °C -11.5 °C 34395 hPa NW 44.7 km/h 44.7 km/h 49 % 0 mm 791.0 W/m2 CLR
12:00 -5.1 °C -11.3 °C 34384.8 hPa North 32.8 km/h 32.8 km/h 49 % 0 mm 777.0 W/m2 CLR
12:05 -4.9 °C -11.3 °C 34384.8 hPa WNW 35.7 km/h 35.7 km/h 48 % 0 mm 795.0 W/m2 CLR
12:10 -4.9 °C -11.2 °C 34395 hPa WNW 32.8 km/h 32.8 km/h 49 % 0 mm 795.0 W/m2 CLR
12:15 -4.9 °C -11.2 °C 34384.8 hPa NW 28.5 km/h 28.5 km/h 49 % 0 mm 798.0 W/m2 CLR
12:20 -4.7 °C -11.3 °C 34384.8 hPa WNW 26.9 km/h 26.9 km/h 47 % 0 mm 833.0 W/m2 CLR
12:25 -4.6 °C -11.4 °C 34384.8 hPa WNW 35.7 km/h 35.7 km/h 46 % 0 mm 830.0 W/m2 CLR
12:30 -4.6 °C -11.4 °C 34384.8 hPa WSW 11.9 km/h 11.9 km/h 46 % 0 mm 844.0 W/m2 CLR
12:35 -4.4 °C -11.3 °C 34384.8 hPa SSW 15 km/h   46 % 0 mm 840.0 W/m2 CLR
12:40 -4.2 °C -11.3 °C 34384.8 hPa NNW 44.7 km/h 44.7 km/h 45 % 0 mm 812.0 W/m2 CLR
12:45 -4.2 °C -11.5 °C 34371.3 hPa NNW 23.3 km/h 23.3 km/h 44 % 0 mm 881.0 W/m2 CLR
12:50 -4.1 °C -11.3 °C 34371.3 hPa NNW 47.6 km/h 47.6 km/h 44 % 0 mm 877.0 W/m2 CLR
12:55 -4.1 °C -11.5 °C 34371.3 hPa NW 41.7 km/h 41.7 km/h 43 % 0 mm 889.0 W/m2 CLR
13:00 -4 °C -11.6 °C 34371.3 hPa WNW 38.8 km/h 38.8 km/h 42 % 0 mm 898.0 W/m2 CLR
13:05 -3.8 °C -11.7 °C 34371.3 hPa NNW 38.8 km/h 38.8 km/h 41 % 0 mm 870.0 W/m2 CLR
13:10 -3.7 °C -11.8 °C 34361.1 hPa NNW 35.7 km/h 35.7 km/h 40 % 0 mm 868.0 W/m2 CLR
13:15 -3.7 °C -12 °C 34361.1 hPa NNW 44.7 km/h 44.7 km/h 39 % 0 mm 888.0 W/m2 CLR
13:20 -3.7 °C -12 °C 34361.1 hPa NW 41.7 km/h 41.7 km/h 39 % 0 mm 870.0 W/m2 CLR
13:25 -3.4 °C -12 °C 34361.1 hPa NW 41.7 km/h 41.7 km/h 38 % 0 mm 926.0 W/m2 CLR
13:30 -3.3 °C -11.9 °C 34361.1 hPa WNW 29.8 km/h 29.8 km/h 38 % 0 mm 898.0 W/m2 CLR
13:31 -3.3 °C -11.8 °C 34361.1 hPa NNW 23.3 km/h 23.3 km/h 38 % 0 mm 898.0 W/m2 CLR
13:36 -3.2 °C -11.9 °C 34361.1 hPa NW 35.7 km/h 35.7 km/h 37 % 0 mm 919.0 W/m2 CLR
13:41 -3.3 °C -12.1 °C 34361.1 hPa North 35.7 km/h 35.7 km/h 37 % 0 mm 905.0 W/m2 CLR
13:45 -3.2 °C -11.8 °C 34361.1 hPa NW 38.8 km/h 38.8 km/h 38 % 0 mm 909.0 W/m2 CLR
13:50 -3 °C -11.8 °C 34361.1 hPa WNW 20.9 km/h 20.9 km/h 37 % 0 mm 921.0 W/m2 CLR
13:55 -3 °C -11.8 °C 34347.6 hPa NW 32.8 km/h 32.8 km/h 37 % 0 mm 925.0 W/m2 CLR
14:00 -2.9 °C -12 °C 34347.6 hPa WNW 33.6 km/h 33.6 km/h 36 % 0 mm 889.0 W/m2 CLR
14:05 -2.8 °C -12.1 °C 34337.4 hPa WNW 33.6 km/h 33.6 km/h 35 % 0 mm 895.0 W/m2 CLR
14:10 -2.7 °C -12.1 °C 34337.4 hPa WNW 29.8 km/h 29.8 km/h 35 % 0 mm 914.0 W/m2 CLR
14:15 -2.6 °C -11.9 °C 34337.4 hPa NNW 32.8 km/h 32.8 km/h 35 % 0 mm 853.0 W/m2 CLR
14:20 -2.6 °C -11.9 °C 34337.4 hPa NW 33.6 km/h 33.6 km/h 35 % 0 mm 898.0 W/m2 CLR
14:25 -2.5 °C -12.1 °C 34337.4 hPa NW 38.8 km/h 38.8 km/h 34 % 0 mm 879.0 W/m2 CLR
14:30 -2.4 °C -12.3 °C 34337.4 hPa North 32.8 km/h 32.8 km/h 33 % 0 mm 874.0 W/m2 CLR
14:35 -2.3 °C -12.2 °C 34337.4 hPa NNW 35.7 km/h 35.7 km/h 33 % 0 mm 916.0 W/m2 CLR
14:40 -2.2 °C -12.3 °C 34337.4 hPa North 38.8 km/h 38.8 km/h 32 % 0 mm 902.0 W/m2 CLR
14:45 -2 °C -12.1 °C 34327.3 hPa NW 44.7 km/h 44.7 km/h 32 % 0 mm 867.0 W/m2 CLR
14:50 -1.9 °C -12.1 °C 34327.3 hPa NNW 50.7 km/h 50.7 km/h 32 % 0 mm 868.0 W/m2 CLR
14:55 -2.1 °C -11.9 °C 34327.3 hPa NNW 38.8 km/h 38.8 km/h 33 % 0 mm 870.0 W/m2 CLR
15:00 -2.1 °C -12 °C 34327.3 hPa NW 20.9 km/h 20.9 km/h 33 % 0 mm 877.0 W/m2 CLR
15:05 -2.1 °C -11.9 °C 34327.3 hPa NW 50.7 km/h 50.7 km/h 33 % 0 mm 844.0 W/m2 CLR
15:10 -2.1 °C -11.7 °C 34327.3 hPa NNW 46.7 km/h 46.7 km/h 34 % 0 mm 847.0 W/m2 CLR
15:15 -2.1 °C -11.7 °C 34327.3 hPa NW 50.7 km/h 50.7 km/h 34 % 0 mm 835.0 W/m2 CLR
15:20 -1.9 °C -11.3 °C 34327.3 hPa NW 35.7 km/h 35.7 km/h 35 % 0 mm 837.0 W/m2 CLR
15:25 -1.7 °C -11.4 °C 34327.3 hPa NNW 33.6 km/h 33.6 km/h 34 % 0 mm 844.0 W/m2 CLR
15:30 -1.8 °C -11.2 °C 34327.3 hPa North 50.7 km/h 50.7 km/h 35 % 0 mm 791.0 W/m2 CLR
15:35 -1.8 °C -11.3 °C 34313.7 hPa North 35.7 km/h 35.7 km/h 35 % 0 mm 860.0 W/m2 CLR
15:40 -1.8 °C -11.2 °C 34327.3 hPa WNW 35.7 km/h 35.7 km/h 35 % 0 mm 861.0 W/m2 CLR
15:45 -1.7 °C -11.2 °C 34327.3 hPa NNW 50.7 km/h 50.7 km/h 35 % 0 mm 795.0 W/m2 CLR
15:50 -1.7 °C -11.2 °C 34313.7 hPa NNW 29.8 km/h 29.8 km/h 35 % 0 mm 793.0 W/m2 CLR
15:55 -1.8 °C -11.2 °C 34313.7 hPa NNW 23.8 km/h 23.8 km/h 35 % 0 mm 807.0 W/m2 CLR
16:00 -1.6 °C -11.1 °C 34313.7 hPa NNE 32.8 km/h 32.8 km/h 35 % 0 mm 830.0 W/m2 CLR
16:02 -1.6 °C -11.3 °C 34313.7 hPa North 32.8 km/h 32.8 km/h 34 % 0 mm 791.0 W/m2 CLR
16:07 -1.5 °C -11.2 °C 34313.7 hPa NW 44.7 km/h 44.7 km/h 34 % 0 mm 819.0 W/m2 CLR
16:12 -1.4 °C -10.9 °C 34313.7 hPa WNW 38.8 km/h 38.8 km/h 35 % 0 mm 761.0 W/m2 CLR
16:17 -1.5 °C -10.9 °C 34313.7 hPa NNW 33.6 km/h 33.6 km/h 35 % 0 mm 698.0 W/m2 CLR
16:22 -1.5 °C -11.2 °C 34303.6 hPa WNW 29.8 km/h 29.8 km/h 34 % 0 mm 698.0 W/m2 CLR
16:27 -1.4 °C -11.2 °C 34303.6 hPa NNW 38.8 km/h 38.8 km/h 34 % 0 mm 773.0 W/m2 CLR
16:32 -1.5 °C -10.9 °C 34303.6 hPa NNW 32.8 km/h 32.8 km/h 35 % 0 mm 795.0 W/m2 CLR
16:37 -1.3 °C -11.1 °C 34303.6 hPa NW 35.7 km/h 35.7 km/h 34 % 0 mm 664.0 W/m2 CLR
16:42 -1.3 °C -11 °C 34303.6 hPa NW 26.9 km/h 26.9 km/h 34 % 0 mm 666.0 W/m2 CLR
16:47 -1 °C -10.8 °C 34303.6 hPa North 9 km/h 9 km/h 34 % 0 mm 691.0 W/m2 CLR
16:52 -1 °C -11.1 °C 34303.6 hPa Calm     33 % 0 mm 657.0 W/m2 CLR
16:57 -0.9 °C -10.9 °C 34293.4 hPa NNW 9 km/h 9 km/h 33 % 0 mm 682.0 W/m2 CLR
17:02 -0.9 °C -11 °C 34293.4 hPa West 9 km/h 9 km/h 33 % 0 mm 621.0 W/m2 CLR
17:07 -0.9 °C -11.2 °C 34293.4 hPa NW 47.6 km/h 47.6 km/h 32 % 0 mm 645.0 W/m2 CLR
17:12 -0.9 °C -11.2 °C 34279.9 hPa NNW 38.8 km/h 38.8 km/h 32 % 0 mm 694.0 W/m2 CLR
17:17 -0.8 °C -10.9 °C 34279.9 hPa North 29.8 km/h 29.8 km/h 33 % 0 mm 624.0 W/m2 CLR
17:22 -0.7 °C -11.1 °C 34279.9 hPa NW 29.8 km/h 29.8 km/h 32 % 0 mm 563.0 W/m2 CLR
17:27 -0.7 °C -11 °C 34279.9 hPa North 41.4 km/h 41.4 km/h 32 % 0 mm 568.0 W/m2 CLR
17:32 -0.8 °C -11.1 °C 34279.9 hPa NW 9 km/h 9 km/h 32 % 0 mm 527.0 W/m2 CLR
17:37 -0.7 °C -11.3 °C 34279.9 hPa NW 26.9 km/h 26.9 km/h 31 % 0 mm 536.0 W/m2 CLR
17:42 -0.5 °C -11.1 °C 34279.9 hPa NNW 7.7 km/h 7.7 km/h 31 % 0 mm 522.0 W/m2 CLR
17:47 -0.4 °C -11 °C 34279.9 hPa NW 31.1 km/h 31.1 km/h 31 % 0 mm 575.0 W/m2 CLR
17:52 -0.2 °C -11.2 °C 34269.7 hPa WNW 26.9 km/h 26.9 km/h 30 % 0 mm 598.0 W/m2 CLR
17:57 -0.2 °C -11.5 °C 34269.7 hPa NNW 35.7 km/h 35.7 km/h 29 % 0 mm 580.0 W/m2 CLR
18:02 -0.3 °C -11.2 °C 34279.9 hPa NNW 38.8 km/h 38.8 km/h 30 % 0 mm 559.0 W/m2 CLR
18:07 -0.2 °C -11.2 °C 34269.7 hPa NW 35.7 km/h 35.7 km/h 30 % 0 mm 503.0 W/m2 CLR
18:12 -0.4 °C -11.3 °C 34269.7 hPa North 47.6 km/h 47.6 km/h 30 % 0 mm 504.0 W/m2 CLR
18:17 -0.4 °C -11.3 °C 34269.7 hPa NNW 26.9 km/h 26.9 km/h 30 % 0 mm 499.0 W/m2 CLR
18:22 -0.3 °C -11.2 °C 34269.7 hPa WNW 38.8 km/h 38.8 km/h 30 % 0 mm 454.0 W/m2 CLR
18:27 -0.1 °C -11.1 °C 34269.7 hPa North 41.7 km/h 41.7 km/h 30 % 0 mm 436.0 W/m2 CLR
18:32 -0.3 °C -11 °C 34269.7 hPa NNW 38.8 km/h 38.8 km/h 31 % 0 mm 455.0 W/m2 CLR
18:37 -0.4 °C -11.1 °C 34269.7 hPa NNW 38.8 km/h 38.8 km/h 31 % 0 mm 411.0 W/m2 CLR
18:42 -0.4 °C -11 °C 34269.7 hPa NNW 32.8 km/h 32.8 km/h 31 % 0 mm 396.0 W/m2 CLR
18:47 -0.4 °C -10.7 °C 34269.7 hPa NNE 38.8 km/h 38.8 km/h 32 % 0 mm 357.0 W/m2 CLR
18:52 -0.4 °C -10.5 °C 34269.7 hPa NNW 29.8 km/h 29.8 km/h 33 % 0 mm 364.0 W/m2 CLR
18:57 -0.4 °C -10.7 °C 34269.7 hPa NNW 9 km/h 9 km/h 32 % 0 mm 311.0 W/m2 CLR
19:02 -0.3 °C -10.4 °C 34269.7 hPa WNW 38.8 km/h 38.8 km/h 33 % 0 mm 283.0 W/m2 CLR
19:07 -0.3 °C -10.4 °C 34269.7 hPa NNW 32.8 km/h 32.8 km/h 33 % 0 mm 313.0 W/m2 CLR
19:12 -0.4 °C -10.7 °C 34269.7 hPa NNW 47.6 km/h 47.6 km/h 32 % 0 mm 338.0 W/m2 CLR
19:17 -0.4 °C -10.5 °C 34269.7 hPa NW 41.4 km/h 41.4 km/h 33 % 0 mm 297.0 W/m2 CLR
19:22 -0.4 °C -10.8 °C 34269.7 hPa NNW 41.7 km/h 41.7 km/h 32 % 0 mm 253.0 W/m2 CLR
19:27 -0.3 °C -10.7 °C 34269.7 hPa NW 44.1 km/h 44.1 km/h 32 % 0 mm 251.0 W/m2 CLR
19:32 -0.5 °C -10.6 °C 34269.7 hPa WNW 44.7 km/h 44.7 km/h 33 % 0 mm 211.0 W/m2 CLR
19:37 -0.6 °C -10.9 °C 34269.7 hPa NW 44.7 km/h 44.7 km/h 32 % 0 mm 236.0 W/m2 CLR
19:42 -0.6 °C -10.7 °C 34269.7 hPa WNW 32.8 km/h 32.8 km/h 33 % 0 mm 221.0 W/m2 CLR
19:47 -0.6 °C -10.7 °C 34269.7 hPa NW 36.2 km/h 36.2 km/h 33 % 0 mm 155.0 W/m2 CLR
19:52 -0.7 °C -10.7 °C 34269.7 hPa NW 50.7 km/h 50.7 km/h 33 % 0 mm 174.0 W/m2 CLR
19:57 -0.7 °C -10.6 °C 34269.7 hPa NW 41.4 km/h 41.4 km/h 34 % 0 mm 193.0 W/m2 CLR
20:02 -0.7 °C -10.5 °C 34269.7 hPa NW 29.8 km/h 29.8 km/h 34 % 0 mm 169.0 W/m2 CLR
20:07 -0.7 °C -10.5 °C 34269.7 hPa NNW 47.6 km/h 47.6 km/h 34 % 0 mm 149.0 W/m2 CLR
20:12 -0.8 °C -10.4 °C 34269.7 hPa WNW 35.7 km/h 35.7 km/h 35 % 0 mm 130.0 W/m2 CLR
20:17 -0.8 °C -10.3 °C 34269.7 hPa NW 29.8 km/h 29.8 km/h 35 % 0 mm 121.0 W/m2 CLR
20:22 -0.9 °C -10.4 °C 34269.7 hPa NNW 41.4 km/h 41.4 km/h 35 % 0 mm 102.0 W/m2 CLR
20:27 -0.9 °C -10.4 °C 34269.7 hPa NW 41.7 km/h 41.7 km/h 35 % 0 mm 88.0 W/m2 CLR
20:32 -1 °C -10.5 °C 34269.7 hPa NNW 35.7 km/h 35.7 km/h 35 % 0 mm 65.0 W/m2 FEW
20:37 -1 °C -10.3 °C 34279.9 hPa NW 31.1 km/h 31.1 km/h 36 % 0 mm 62.0 W/m2 SCT
20:42 -1.1 °C -10.4 °C 34279.9 hPa NNW 29.8 km/h 29.8 km/h 36 % 0 mm 46.0 W/m2 SCT
20:47 -1.2 °C -10.4 °C 34279.9 hPa NW 32.8 km/h 32.8 km/h 36 % 0 mm 35.0 W/m2 BKN
20:52 -1.2 °C -10.4 °C 34279.9 hPa NW 23.8 km/h 23.8 km/h 36 % 0 mm 28.0 W/m2 BKN
20:58 -1.3 °C -10.6 °C 34279.9 hPa NNW 15 km/h 15 km/h 36 % 0 mm 23.0 W/m2 BKN
21:03 -1.4 °C -10.4 °C 34279.9 hPa NW 11.9 km/h 11.9 km/h 37 % 0 mm 19.0 W/m2 BKN
21:08 -1.6 °C -10.5 °C 34293.4 hPa NW 17.9 km/h 17.9 km/h 37 % 0 mm 16.0 W/m2 BKN
21:13 -1.7 °C -10.4 °C 34293.4 hPa NNW 12.9 km/h 12.9 km/h 38 % 0 mm 12.0 W/m2 BKN
21:18 -1.8 °C -10.5 °C 34293.4 hPa NW 17.9 km/h 17.9 km/h 38 % 0 mm 9.0 W/m2 BKN
21:23 -1.8 °C -10.8 °C 34293.4 hPa NW 15.6 km/h 15.8 km/h 37 % 0 mm 5.0 W/m2 OVC
21:28 -1.9 °C -10.8 °C 34293.4 hPa NW 29.8 km/h 29.8 km/h 37 % 0 mm 0.0 W/m2 OVC
21:33 -1.9 °C -11.1 °C 34303.6 hPa NW 15.6 km/h 15.6 km/h 36 % 0 mm 0.0 W/m2 CLR
21:38 -2.1 °C -11.2 °C 34303.6 hPa WNW 15 km/h 15 km/h 36 % 0 mm 0.0 W/m2 CLR
21:43 -2.2 °C -11.3 °C 34303.6 hPa WNW 15 km/h 15 km/h 36 % 0 mm 0.0 W/m2 CLR
21:48 -2.2 °C -11.3 °C 34303.6 hPa WNW 11.9 km/h 11.9 km/h 36 % 0 mm 0.0 W/m2 CLR
21:53 -2.3 °C -11.2 °C 34303.6 hPa WNW 15.6 km/h 15.6 km/h 37 % 0 mm 0.0 W/m2 CLR
21:58 -2.3 °C -11.2 °C 34303.6 hPa WNW 15 km/h 15 km/h 37 % 0 mm 0.0 W/m2 CLR
22:03 -2.4 °C -11.3 °C 34303.6 hPa WNW 9 km/h 9 km/h 37 % 0 mm 0.0 W/m2 CLR
22:08 -2.5 °C -11.2 °C 34313.7 hPa WNW 15 km/h 15 km/h 38 % 0 mm 0.0 W/m2 CLR
22:13 -2.5 °C -11.4 °C 34313.7 hPa WNW 15.6 km/h 15.6 km/h 37 % 0 mm 0.0 W/m2 CLR
22:18 -2.4 °C -11.3 °C 34313.7 hPa West 20.9 km/h 20.9 km/h 37 % 0 mm 0.0 W/m2 CLR
22:23 -2.4 °C -11.3 °C 34313.7 hPa West 20.9 km/h 20.9 km/h 37 % 0 mm 0.0 W/m2 CLR
22:28 -2.4 °C -11.6 °C 34327.3 hPa West 20.9 km/h 20.9 km/h 36 % 0 mm 0.0 W/m2 CLR
22:33 -2.6 °C -11.6 °C 34327.3 hPa West 20.9 km/h 20.9 km/h 36 % 0 mm 0.0 W/m2 CLR
22:38 -2.6 °C -11.7 °C 34327.3 hPa West 23.8 km/h 23.8 km/h 36 % 0 mm 0.0 W/m2 CLR
22:48 -2.6 °C -11.7 °C 34327.3 hPa WNW 12.9 km/h 12.9 km/h 36 % 0 mm 0.0 W/m2 CLR
22:53 -2.7 °C -11.6 °C 34327.3 hPa WNW 15 km/h 15 km/h 37 % 0 mm 0.0 W/m2 CLR
22:58 -2.8 °C -11.7 °C 34327.3 hPa WNW 6 km/h 6 km/h 37 % 0 mm 0.0 W/m2 CLR
23:03 -2.9 °C -11.6 °C 34337.4 hPa WNW 11.9 km/h 11.9 km/h 38 % 0 mm 0.0 W/m2 CLR
23:08 -3 °C -11.6 °C 34327.3 hPa West 15 km/h 15 km/h 38 % 0 mm 0.0 W/m2 CLR
23:13 -3 °C -11.6 °C 34327.3 hPa West 15 km/h 15 km/h 38 % 0 mm 0.0 W/m2 CLR
23:18 -3 °C -11.4 °C 34327.3 hPa West 9 km/h 9 km/h 39 % 0 mm 0.0 W/m2 CLR
23:23 -3.1 °C -11.4 °C 34327.3 hPa Calm     39 % 0 mm 0.0 W/m2 CLR
23:28 -3.2 °C -11.3 °C 34327.3 hPa WSW 9 km/h 9 km/h 40 % 0 mm 0.0 W/m2 CLR
23:33 -3.4 °C -11.3 °C 34327.3 hPa WSW 11.9 km/h 11.9 km/h 41 % 0 mm 0.0 W/m2 CLR
23:38 -3.5 °C -11.4 °C 34337.4 hPa West 17.9 km/h 17.9 km/h 41 % 0 mm 0.0 W/m2 CLR
23:43 -3.4 °C -11.3 °C 34327.3 hPa WNW 26.9 km/h 26.9 km/h 41 % 0 mm 0.0 W/m2 CLR
23:48 -3.3 °C -11.2 °C 34327.3 hPa West 15.6 km/h 15.6 km/h 41 % 0 mm 0.0 W/m2 CLR
23:53 -3.3 °C -11.2 °C 34327.3 hPa WSW 20.9 km/h 20.9 km/h 41 % 0 mm 0.0 W/m2 CLR
23:58 -3.4 °C -11.3 °C 34337.4 hPa West 17.9 km/h 17.9 km/h 41 % 0 mm 0.0 W/m2 CLR
Lo Temps de Massalio
Compliments of Weather Underground - 1.25 mb